createdAt,value
2024-02-13T00:02:35.788Z,2.47
2024-02-13T00:05:20.886Z,2.47
2024-02-13T00:08:07.354Z,2.03
2024-02-13T00:10:52.551Z,2.13
2024-02-13T00:13:37.695Z,2.37
2024-02-13T00:16:23.060Z,2.33
2024-02-13T00:19:11.207Z,2.03
2024-02-13T00:21:56.854Z,2.10
2024-02-13T00:24:44.878Z,2.47
2024-02-13T00:27:34.050Z,2.10
2024-02-13T00:30:20.431Z,2.17
2024-02-13T00:33:06.826Z,2.33
2024-02-13T00:35:54.466Z,2.30
2024-02-13T00:38:41.614Z,2.27
2024-02-13T00:41:27.336Z,2.37
2024-02-13T00:44:15.985Z,2.10
2024-02-13T00:47:01.355Z,2.23
2024-02-13T00:49:46.881Z,2.27
2024-02-13T00:52:32.067Z,2.37
2024-02-13T00:55:17.605Z,1.93
2024-02-13T00:58:02.791Z,2.47
2024-02-13T01:00:49.869Z,2.40
2024-02-13T01:03:37.472Z,2.07
2024-02-13T01:06:23.304Z,2.17
2024-02-13T01:09:08.906Z,2.20
2024-02-13T01:11:54.380Z,2.23
2024-02-13T01:14:40.128Z,2.10
2024-02-13T01:17:26.251Z,2.13
2024-02-13T01:20:13.308Z,2.00
2024-02-13T01:22:58.869Z,1.90
2024-02-13T01:25:44.476Z,2.30
2024-02-13T01:28:29.525Z,2.33
2024-02-13T01:31:15.678Z,1.80
2024-02-13T01:34:01.338Z,1.83
2024-02-13T01:36:46.682Z,2.10
2024-02-13T01:39:31.996Z,2.23
2024-02-13T01:42:18.305Z,1.90
2024-02-13T01:45:06.013Z,2.13
2024-02-13T01:47:51.293Z,2.50
2024-02-13T01:50:37.965Z,2.23
2024-02-13T01:53:26.941Z,2.27
2024-02-13T01:56:13.449Z,1.87
2024-02-13T01:58:59.180Z,1.80
2024-02-13T02:01:49.052Z,1.43
2024-02-13T02:04:36.985Z,1.70
2024-02-13T02:07:24.523Z,2.10
2024-02-13T02:10:10.640Z,1.97
2024-02-13T02:12:55.834Z,1.87
2024-02-13T02:15:42.389Z,1.80
2024-02-13T02:18:28.091Z,1.90
2024-02-13T02:21:15.662Z,2.10
2024-02-13T02:24:02.854Z,1.80
2024-02-13T02:26:48.301Z,1.80
2024-02-13T02:29:35.294Z,1.70
2024-02-13T02:32:21.471Z,2.10
2024-02-13T02:35:07.643Z,1.77
2024-02-13T02:37:53.612Z,1.87
2024-02-13T02:40:41.800Z,1.70
2024-02-13T02:43:26.853Z,1.90
2024-02-13T02:46:14.025Z,1.63
2024-02-13T02:49:00.098Z,1.90
2024-02-13T02:51:45.486Z,1.60
2024-02-13T02:54:30.972Z,1.60
2024-02-13T02:57:16.363Z,1.60
2024-02-13T03:00:11.364Z,1.60
2024-02-13T03:02:57.245Z,1.90
2024-02-13T03:05:42.440Z,1.80
2024-02-13T03:08:29.466Z,1.50
2024-02-13T03:11:15.166Z,1.47
2024-02-13T03:14:00.419Z,1.70
2024-02-13T03:16:46.925Z,1.60
2024-02-13T03:19:32.289Z,1.40
2024-02-13T03:22:23.902Z,1.73
2024-02-13T03:25:09.341Z,1.70
2024-02-13T03:27:55.304Z,1.57
2024-02-13T03:30:40.169Z,1.40
2024-02-13T03:33:26.019Z,1.40
2024-02-13T03:36:17.761Z,1.57
2024-02-13T03:39:07.246Z,1.63
2024-02-13T03:41:52.934Z,1.53
2024-02-13T03:44:41.166Z,1.30
2024-02-13T03:47:27.153Z,1.60
2024-02-13T03:50:13.239Z,1.37
2024-02-13T03:52:58.788Z,1.50
2024-02-13T03:55:44.123Z,1.43
2024-02-13T03:58:32.707Z,1.40
2024-02-13T04:01:17.720Z,1.60
2024-02-13T04:04:03.032Z,1.53
2024-02-13T04:06:48.677Z,1.53
2024-02-13T04:09:34.041Z,1.20
2024-02-13T04:12:19.401Z,1.53
2024-02-13T04:15:05.056Z,1.70
2024-02-13T04:17:51.381Z,1.43
2024-02-13T04:20:39.153Z,1.60
2024-02-13T04:23:24.747Z,1.43
2024-02-13T04:26:21.385Z,1.63
2024-02-13T04:29:11.288Z,1.57
2024-02-13T04:31:56.801Z,1.27
2024-02-13T04:34:43.272Z,1.60
2024-02-13T04:37:28.724Z,1.27
2024-02-13T04:40:14.804Z,1.50
2024-02-13T04:43:01.884Z,1.40
2024-02-13T04:45:47.012Z,1.50
2024-02-13T04:48:32.379Z,1.70
2024-02-13T04:51:17.734Z,1.20
2024-02-13T04:54:05.920Z,1.07
2024-02-13T04:56:51.132Z,1.17
2024-02-13T04:59:48.981Z,1.30
2024-02-13T05:02:40.795Z,1.20
2024-02-13T05:05:45.047Z,1.30
2024-02-13T05:08:31.492Z,1.37
2024-02-13T05:11:19.741Z,1.23
2024-02-13T05:14:04.937Z,1.23
2024-02-13T05:16:49.985Z,1.23
2024-02-13T05:19:35.014Z,1.20
2024-02-13T05:22:20.899Z,1.33
2024-02-13T05:25:08.245Z,1.20
2024-02-13T05:27:53.876Z,1.40
2024-02-13T05:30:38.914Z,1.43
2024-02-13T05:33:24.445Z,1.70
2024-02-13T05:36:11.396Z,1.53
2024-02-13T05:38:57.948Z,1.60
2024-02-13T05:41:44.512Z,1.30
2024-02-13T05:44:30.047Z,1.27
2024-02-13T05:47:15.316Z,1.10
2024-02-13T05:50:01.685Z,1.00
2024-02-13T05:52:48.988Z,1.53
2024-02-13T05:55:34.326Z,1.27
2024-02-13T05:58:21.090Z,1.60
2024-02-13T06:01:07.000Z,1.40
2024-02-13T06:03:56.748Z,1.37
2024-02-13T06:06:44.762Z,1.30
2024-02-13T06:09:30.259Z,1.20
2024-02-13T06:12:15.608Z,1.07
2024-02-13T06:15:02.411Z,1.30
2024-02-13T06:17:48.981Z,0.97
2024-02-13T06:20:34.489Z,1.10
2024-02-13T06:23:19.760Z,1.17
2024-02-13T06:26:04.965Z,1.17
2024-02-13T06:28:50.169Z,1.30
2024-02-13T06:31:37.737Z,1.20
2024-02-13T06:34:23.414Z,1.23
2024-02-13T06:37:08.952Z,1.10
2024-02-13T06:39:54.181Z,1.07
2024-02-13T06:42:39.682Z,1.07
2024-02-13T06:45:27.097Z,1.40
2024-02-13T06:48:12.552Z,1.17
2024-02-13T06:50:58.458Z,1.40
2024-02-13T06:53:44.192Z,0.90
2024-02-13T06:56:30.135Z,1.40
2024-02-13T06:59:15.516Z,1.30
2024-02-13T07:02:01.160Z,1.40
2024-02-13T07:04:46.615Z,1.20
2024-02-13T07:07:41.663Z,1.23
2024-02-13T07:10:32.344Z,1.03
2024-02-13T07:13:17.704Z,1.27
2024-02-13T07:16:07.736Z,1.10
2024-02-13T07:18:53.073Z,1.70
2024-02-13T07:21:38.330Z,1.23
2024-02-13T07:24:23.474Z,1.37
2024-02-13T07:27:08.846Z,1.20
2024-02-13T07:29:56.392Z,1.20
2024-02-13T07:32:42.169Z,1.40
2024-02-13T07:35:27.495Z,1.17
2024-02-13T07:38:12.934Z,1.33
2024-02-13T07:40:59.510Z,1.20
2024-02-13T07:43:44.583Z,1.50
2024-02-13T07:46:30.312Z,1.30
2024-02-13T07:49:15.907Z,1.20
2024-02-13T07:52:01.178Z,0.97
2024-02-13T07:54:46.810Z,1.00
2024-02-13T07:57:34.074Z,1.20
2024-02-13T08:00:22.029Z,0.93
2024-02-13T08:03:08.042Z,1.03
2024-02-13T08:05:54.963Z,1.17
2024-02-13T08:08:40.517Z,1.40
2024-02-13T08:11:25.955Z,1.10
2024-02-13T08:14:12.008Z,1.23
2024-02-13T08:16:59.213Z,1.40
2024-02-13T08:19:44.474Z,1.20
2024-02-13T08:22:30.078Z,1.00
2024-02-13T08:25:15.635Z,0.90
2024-02-13T08:28:00.869Z,0.90
2024-02-13T08:30:49.238Z,1.53
2024-02-13T08:33:35.010Z,1.00
2024-02-13T08:36:20.352Z,1.00
2024-02-13T08:39:06.022Z,1.30
2024-02-13T08:41:51.880Z,1.10
2024-02-13T08:44:37.336Z,1.03
2024-02-13T08:47:23.109Z,1.20
2024-02-13T08:50:09.133Z,1.13
2024-02-13T08:52:54.549Z,1.53
2024-02-13T08:55:40.503Z,1.37
2024-02-13T08:58:27.345Z,1.00
2024-02-13T09:01:13.281Z,1.40
2024-02-13T09:03:58.493Z,1.10
2024-02-13T09:06:44.260Z,1.00
2024-02-13T09:09:33.839Z,1.30
2024-02-13T09:12:20.309Z,1.00
2024-02-13T09:15:10.815Z,1.40
2024-02-13T09:17:56.612Z,1.27
2024-02-13T09:20:42.757Z,1.20
2024-02-13T09:23:31.218Z,1.30
2024-02-13T09:26:16.629Z,1.60
2024-02-13T09:29:02.563Z,1.03
2024-02-13T09:31:48.008Z,1.30
2024-02-13T09:34:34.723Z,1.20
2024-02-13T09:37:20.048Z,1.17
2024-02-13T09:40:15.727Z,0.97
2024-02-13T09:43:00.992Z,1.40
2024-02-13T09:45:46.850Z,1.00
2024-02-13T09:48:35.095Z,1.20
2024-02-13T09:51:20.873Z,1.17
2024-02-13T09:54:08.994Z,1.63
2024-02-13T09:56:55.415Z,1.10
2024-02-13T09:59:42.213Z,1.47
2024-02-13T10:02:29.115Z,1.17
2024-02-13T10:05:15.003Z,1.00
2024-02-13T10:08:00.744Z,1.50
2024-02-13T10:10:46.286Z,1.90
2024-02-13T10:13:45.231Z,1.00
2024-02-13T10:16:33.304Z,1.07
2024-02-13T10:19:22.647Z,1.00
2024-02-13T10:22:11.282Z,1.07
2024-02-13T10:24:56.193Z,1.17
2024-02-13T10:27:41.686Z,1.17
2024-02-13T10:30:28.863Z,1.33
2024-02-13T10:33:16.292Z,1.13
2024-02-13T10:36:01.888Z,1.10
2024-02-13T10:38:49.927Z,0.90
2024-02-13T10:41:41.513Z,0.93
2024-02-13T10:44:29.566Z,1.23
2024-02-13T10:47:19.735Z,0.90
2024-02-13T10:50:07.965Z,1.03
2024-02-13T10:52:56.000Z,0.90
2024-02-13T10:55:44.083Z,1.10
2024-02-13T10:58:34.374Z,0.90
2024-02-13T11:01:24.100Z,1.00
2024-02-13T11:04:12.069Z,1.37
2024-02-13T11:06:57.819Z,1.20
2024-02-13T11:09:44.488Z,1.20
2024-02-13T11:12:30.424Z,1.10
2024-02-13T11:15:17.452Z,0.87
2024-02-13T11:18:06.827Z,1.40
2024-02-13T11:20:54.256Z,0.90
2024-02-13T11:23:39.467Z,1.07
2024-02-13T11:26:26.330Z,0.93
2024-02-13T11:29:15.135Z,1.23
2024-02-13T11:32:00.385Z,1.13
2024-02-13T11:34:45.906Z,1.10
2024-02-13T11:37:31.660Z,1.50
2024-02-13T11:40:20.389Z,1.33
2024-02-13T11:43:05.703Z,1.10
2024-02-13T11:45:51.777Z,1.40
2024-02-13T11:48:39.961Z,1.10
2024-02-13T11:51:25.704Z,1.00
2024-02-13T11:54:11.201Z,1.50
2024-02-13T11:56:57.292Z,1.43
2024-02-13T11:59:43.842Z,1.10
2024-02-13T12:02:31.014Z,1.20
2024-02-13T12:05:17.412Z,0.83
2024-02-13T12:08:02.610Z,1.03
2024-02-13T12:10:49.915Z,1.00
2024-02-13T12:13:36.025Z,1.00
2024-02-13T12:16:21.383Z,0.80
2024-02-13T12:19:09.422Z,1.10
2024-02-13T12:21:54.699Z,1.07
2024-02-13T12:24:48.102Z,1.00
2024-02-13T12:27:34.333Z,1.10
2024-02-13T12:30:21.194Z,1.37
2024-02-13T12:33:10.162Z,1.10
2024-02-13T12:36:20.450Z,1.07
2024-02-13T12:39:21.637Z,0.90
2024-02-13T12:42:12.299Z,1.20
2024-02-13T12:44:59.385Z,1.00
2024-02-13T12:47:45.370Z,0.87
2024-02-13T12:50:31.731Z,1.10
2024-02-13T12:53:21.276Z,1.00
2024-02-13T12:56:06.604Z,0.93
2024-02-13T12:58:53.869Z,1.03
2024-02-13T13:01:48.454Z,1.00
2024-02-13T13:04:33.469Z,0.90
2024-02-13T13:07:20.016Z,1.30
2024-02-13T13:10:05.328Z,1.03
2024-02-13T13:12:51.301Z,0.87
2024-02-13T13:15:37.503Z,1.03
2024-02-13T13:18:25.167Z,1.13
2024-02-13T13:21:10.748Z,1.20
2024-02-13T13:23:58.045Z,1.27
2024-02-13T13:26:43.357Z,3.17
2024-02-13T13:29:30.735Z,1.07
2024-02-13T13:32:18.284Z,1.27
2024-02-13T13:35:03.860Z,2.17
2024-02-13T13:37:49.379Z,2.63
2024-02-13T13:40:38.649Z,1.93
2024-02-13T13:43:24.624Z,1.77
2024-02-13T13:46:09.859Z,1.67
2024-02-13T13:48:55.372Z,1.70
2024-02-13T13:51:41.426Z,4.03
2024-02-13T13:54:26.820Z,2.60
2024-02-13T13:57:12.035Z,3.07
2024-02-13T13:59:57.774Z,2.50
2024-02-13T14:02:44.174Z,2.50
2024-02-13T14:05:32.855Z,2.47
2024-02-13T14:08:18.520Z,4.67
2024-02-13T14:11:04.070Z,4.90
2024-02-13T14:13:51.057Z,3.00
2024-02-13T14:16:36.320Z,2.63
2024-02-13T14:19:21.725Z,6.87
2024-02-13T14:22:13.026Z,3.57
2024-02-13T14:24:58.129Z,3.07
2024-02-13T14:27:43.205Z,5.53
2024-02-13T14:30:30.277Z,6.23
2024-02-13T14:33:16.411Z,4.93
2024-02-13T14:36:02.368Z,5.23
2024-02-13T14:38:47.556Z,3.07
2024-02-13T14:41:33.806Z,4.03
2024-02-13T14:44:19.659Z,6.90
2024-02-13T14:47:05.549Z,4.10
2024-02-13T14:49:51.131Z,4.17
2024-02-13T14:52:36.790Z,3.27
2024-02-13T14:55:22.017Z,6.00
2024-02-13T14:58:15.195Z,2.83
2024-02-13T15:01:09.926Z,3.97
2024-02-13T15:03:55.757Z,5.80
2024-02-13T15:06:41.140Z,3.67
2024-02-13T15:09:28.608Z,4.63
2024-02-13T15:12:14.130Z,5.13
2024-02-13T15:14:59.709Z,2.93
2024-02-13T15:17:47.264Z,4.63
2024-02-13T15:20:32.907Z,2.93
2024-02-13T15:23:18.094Z,2.47
2024-02-13T15:26:05.895Z,2.30
2024-02-13T15:28:51.669Z,2.90
2024-02-13T15:31:39.371Z,3.37
2024-02-13T15:34:24.611Z,2.63
2024-02-13T15:37:09.886Z,3.47
2024-02-13T15:40:14.037Z,2.50
2024-02-13T15:43:17.973Z,1.83
2024-02-13T15:46:21.895Z,2.33
2024-02-13T15:49:07.279Z,1.80
2024-02-13T15:51:53.542Z,2.20
2024-02-13T15:54:41.131Z,1.60
2024-02-13T15:57:27.431Z,1.60
2024-02-13T16:00:21.684Z,1.70
2024-02-13T16:03:09.809Z,1.57
2024-02-13T16:05:56.350Z,1.57
2024-02-13T16:08:41.875Z,2.07
2024-02-13T16:11:27.071Z,1.47
2024-02-13T16:14:13.654Z,1.50
2024-02-13T16:16:59.468Z,2.40
2024-02-13T16:19:44.953Z,1.43
2024-02-13T16:22:33.270Z,1.60
2024-02-13T16:25:19.795Z,1.60
2024-02-13T16:28:06.934Z,1.90
2024-02-13T16:30:52.341Z,2.03
2024-02-13T16:33:38.782Z,1.50
2024-02-13T16:36:25.267Z,1.73
2024-02-13T16:39:11.013Z,1.50
2024-02-13T16:41:56.422Z,1.20
2024-02-13T16:44:43.101Z,2.10
2024-02-13T16:47:28.636Z,1.30
2024-02-13T16:50:16.026Z,1.37
2024-02-13T16:53:03.808Z,1.13
2024-02-13T16:55:50.146Z,1.57
2024-02-13T16:58:35.864Z,1.40
2024-02-13T17:01:21.710Z,4.70
2024-02-13T17:04:10.198Z,3.27
2024-02-13T17:06:57.184Z,1.67
2024-02-13T17:09:42.775Z,4.10
2024-02-13T17:12:28.693Z,1.93
2024-02-13T17:15:15.613Z,1.93
2024-02-13T17:18:02.010Z,1.43
2024-02-13T17:20:47.543Z,1.83
2024-02-13T17:23:33.132Z,1.83
2024-02-13T17:26:22.919Z,6.27
2024-02-13T17:29:08.526Z,4.27
2024-02-13T17:31:54.039Z,6.77
2024-02-13T17:34:39.735Z,4.73
2024-02-13T17:37:24.937Z,5.13
2024-02-13T17:40:14.200Z,11.27
2024-02-13T17:42:59.490Z,5.80
2024-02-13T17:45:45.150Z,6.03
2024-02-13T17:48:31.407Z,5.40
2024-02-13T17:51:18.375Z,7.77
2024-02-13T17:54:05.331Z,13.53
2024-02-13T17:56:51.821Z,14.60
2024-02-13T17:59:37.458Z,13.60
2024-02-13T18:02:23.030Z,16.97
2024-02-13T18:05:09.882Z,7.20
2024-02-13T18:07:55.553Z,6.03
2024-02-13T18:10:40.774Z,12.20
2024-02-13T18:13:26.257Z,9.03
2024-02-13T18:16:11.699Z,10.77
2024-02-13T18:18:57.844Z,7.82
2024-02-13T18:21:43.315Z,59.27
2024-02-13T18:24:28.331Z,23.53
2024-02-13T18:27:14.671Z,17.47
2024-02-13T18:29:59.778Z,18.03
2024-02-13T18:32:45.277Z,17.83
2024-02-13T18:35:30.749Z,17.00
2024-02-13T18:38:16.477Z,56.57
2024-02-13T18:41:02.063Z,56.57
2024-02-13T18:43:47.415Z,44.40
2024-02-13T18:46:32.830Z,41.93
2024-02-13T18:49:19.001Z,32.97
2024-02-13T18:52:04.957Z,33.47
2024-02-13T18:54:50.016Z,33.10
2024-02-13T18:57:37.106Z,29.40
2024-02-13T19:00:22.414Z,33.10
2024-02-13T19:03:09.116Z,33.80
2024-02-13T19:05:55.202Z,23.57
2024-02-13T19:08:40.836Z,19.87
2024-02-13T19:11:26.506Z,18.73
2024-02-13T19:14:11.977Z,19.33
2024-02-13T19:16:58.566Z,17.47
2024-02-13T19:19:43.836Z,17.00
2024-02-13T19:22:30.210Z,16.88
2024-02-13T19:25:17.156Z,13.83
2024-02-13T19:28:04.621Z,15.80
2024-02-13T19:30:52.967Z,13.20
2024-02-13T19:33:39.955Z,15.47
2024-02-13T19:36:30.703Z,11.13
2024-02-13T19:39:16.496Z,12.23
2024-02-13T19:42:03.201Z,8.80
2024-02-13T19:44:48.864Z,9.47
2024-02-13T19:47:37.518Z,8.73
2024-02-13T19:50:23.055Z,6.43
2024-02-13T19:53:09.867Z,7.03
2024-02-13T19:55:55.252Z,6.70
2024-02-13T19:58:40.896Z,11.40
2024-02-13T20:01:26.096Z,5.17
2024-02-13T20:04:11.230Z,8.37
2024-02-13T20:06:57.211Z,6.47
2024-02-13T20:09:45.668Z,5.20
2024-02-13T20:12:33.265Z,5.13
2024-02-13T20:15:15.038Z,7.03
2024-02-13T20:18:01.102Z,7.47
2024-02-13T20:20:46.727Z,4.60
2024-02-13T20:23:34.389Z,6.73
2024-02-13T20:26:19.936Z,5.00
2024-02-13T20:29:07.203Z,10.13
2024-02-13T20:31:52.155Z,6.07
2024-02-13T20:34:38.387Z,4.70
2024-02-13T20:37:24.238Z,7.07
2024-02-13T20:40:14.145Z,5.70
2024-02-13T20:43:00.518Z,5.90
2024-02-13T20:45:46.103Z,5.23
2024-02-13T20:48:31.643Z,7.73
2024-02-13T20:51:16.821Z,4.33
2024-02-13T20:54:02.632Z,3.87
2024-02-13T20:56:48.395Z,4.10
2024-02-13T20:59:34.877Z,4.03
2024-02-13T21:02:20.453Z,5.30
2024-02-13T21:05:09.048Z,3.77
2024-02-13T21:07:54.804Z,4.13
2024-02-13T21:10:39.783Z,7.13
2024-02-13T21:13:24.752Z,3.77
2024-02-13T21:16:10.319Z,7.13
2024-02-13T21:18:59.840Z,4.73
2024-02-13T21:22:03.805Z,6.53
2024-02-13T21:24:51.215Z,4.73
2024-02-13T21:27:36.463Z,4.43
2024-02-13T21:30:21.597Z,7.83
2024-02-13T21:33:08.490Z,5.10
2024-02-13T21:35:53.902Z,4.07
2024-02-13T21:38:39.273Z,4.67
2024-02-13T21:41:24.790Z,6.90
2024-02-13T21:44:10.091Z,3.33
2024-02-13T21:46:56.851Z,6.50
2024-02-13T21:49:43.569Z,3.97
2024-02-13T21:52:30.841Z,3.50
2024-02-13T21:55:16.518Z,3.67
2024-02-13T21:58:02.002Z,5.00
2024-02-13T22:00:48.634Z,5.67
2024-02-13T22:03:33.809Z,4.47
2024-02-13T22:06:21.989Z,3.00
2024-02-13T22:09:13.042Z,3.93
2024-02-13T22:11:59.673Z,9.17
2024-02-13T22:14:44.907Z,5.93
2024-02-13T22:17:30.252Z,3.00
2024-02-13T22:20:16.815Z,8.20
2024-02-13T22:23:02.087Z,5.97
2024-02-13T22:25:47.174Z,3.57
2024-02-13T22:28:32.332Z,4.20
2024-02-13T22:31:17.544Z,3.87
2024-02-13T22:34:03.800Z,3.97
2024-02-13T22:36:49.253Z,3.77
2024-02-13T22:39:34.766Z,2.80
2024-02-13T22:42:20.114Z,2.60
2024-02-13T22:45:06.950Z,3.47
2024-02-13T22:48:00.385Z,4.13
2024-02-13T22:50:45.861Z,4.07
2024-02-13T22:53:31.139Z,4.03
2024-02-13T22:56:16.618Z,3.90
2024-02-13T22:59:01.942Z,2.37
2024-02-13T23:01:47.581Z,2.70
2024-02-13T23:04:32.770Z,2.33
2024-02-13T23:07:20.733Z,3.17
2024-02-13T23:10:07.160Z,2.83
2024-02-13T23:12:53.947Z,2.50
2024-02-13T23:15:39.664Z,3.00
2024-02-13T23:18:25.297Z,3.53
2024-02-13T23:21:11.574Z,2.43
2024-02-13T23:23:56.983Z,3.53
2024-02-13T23:26:42.854Z,2.50
2024-02-13T23:29:29.716Z,2.43
2024-02-13T23:32:15.191Z,2.73
2024-02-13T23:35:03.201Z,2.30
2024-02-13T23:37:48.451Z,3.03
2024-02-13T23:40:33.878Z,2.33
2024-02-13T23:43:19.327Z,2.77
2024-02-13T23:46:04.891Z,2.70
2024-02-13T23:48:51.329Z,2.50
2024-02-13T23:51:37.931Z,2.30
2024-02-13T23:54:24.454Z,2.20
2024-02-13T23:57:10.654Z,1.93
2024-02-13T23:59:56.583Z,2.00
